sensor_id;sensor_type;location;lat;lon;timestamp;pressure;altitude;pressure_sealevel;temperature;humidity
77685;BME280;66844;46.092;18.268;2023-03-29T00:00:09;100208.75;;;0.80;71.03
77685;BME280;66844;46.092;18.268;2023-03-29T00:00:48;100210.53;;;0.73;71.47
77685;BME280;66844;46.092;18.268;2023-03-29T00:01:19;100207.88;;;0.76;71.26
77685;BME280;66844;46.092;18.268;2023-03-29T00:01:51;100204.44;;;0.74;70.72
77685;BME280;66844;46.092;18.268;2023-03-29T00:02:22;100207.88;;;0.76;70.88
77685;BME280;66844;46.092;18.268;2023-03-29T00:02:59;100205.28;;;0.75;71.00
77685;BME280;66844;46.092;18.268;2023-03-29T00:03:31;100211.34;;;0.78;70.68
77685;BME280;66844;46.092;18.268;2023-03-29T00:04:03;100206.16;;;0.77;71.41
77685;BME280;66844;46.092;18.268;2023-03-29T00:04:34;100204.41;;;0.76;71.47
77685;BME280;66844;46.092;18.268;2023-03-29T00:05:05;100195.69;;;0.74;70.75
77685;BME280;66844;46.092;18.268;2023-03-29T00:05:37;100203.56;;;0.74;71.42
77685;BME280;66844;46.092;18.268;2023-03-29T00:06:10;100200.06;;;0.73;71.64
77685;BME280;66844;46.092;18.268;2023-03-29T00:06:45;100198.31;;;0.74;71.13
77685;BME280;66844;46.092;18.268;2023-03-29T00:07:17;100198.34;;;0.68;71.93
77685;BME280;66844;46.092;18.268;2023-03-29T00:07:48;100191.38;;;0.67;71.61
77685;BME280;66844;46.092;18.268;2023-03-29T00:08:32;100188.78;;;0.67;72.09
77685;BME280;66844;46.092;18.268;2023-03-29T00:09:07;100192.25;;;0.64;72.09
77685;BME280;66844;46.092;18.268;2023-03-29T00:09:39;100186.16;;;0.65;72.01
77685;BME280;66844;46.092;18.268;2023-03-29T00:10:11;100187.03;;;0.66;72.02
77685;BME280;66844;46.092;18.268;2023-03-29T00:10:42;100191.38;;;0.65;72.62
77685;BME280;66844;46.092;18.268;2023-03-29T00:11:12;100189.63;;;0.64;72.53
77685;BME280;66844;46.092;18.268;2023-03-29T00:11:43;100188.81;;;0.59;72.63
77685;BME280;66844;46.092;18.268;2023-03-29T00:12:14;100191.44;;;0.59;72.71
77685;BME280;66844;46.092;18.268;2023-03-29T00:12:45;100186.19;;;0.58;72.78
77685;BME280;66844;46.092;18.268;2023-03-29T00:13:17;100182.72;;;0.59;72.56
77685;BME280;66844;46.092;18.268;2023-03-29T00:13:48;100187.03;;;0.61;72.18
77685;BME280;66844;46.092;18.268;2023-03-29T00:14:19;100180.97;;;0.58;72.70
77685;BME280;66844;46.092;18.268;2023-03-29T00:14:50;100185.34;;;0.56;72.85
77685;BME280;66844;46.092;18.268;2023-03-29T00:15:21;100180.97;;;0.56;72.70
77685;BME280;66844;46.092;18.268;2023-03-29T00:15:52;100176.59;;;0.57;72.30
77685;BME280;66844;46.092;18.268;2023-03-29T00:16:23;100176.63;;;0.55;72.65
77685;BME280;66844;46.092;18.268;2023-03-29T00:16:54;100180.09;;;0.57;72.47
77685;BME280;66844;46.092;18.268;2023-03-29T00:17:24;100187.97;;;0.54;72.81
77685;BME280;66844;46.092;18.268;2023-03-29T00:17:56;100180.09;;;0.53;72.99
77685;BME280;66844;46.092;18.268;2023-03-29T00:18:27;100178.38;;;0.55;72.70
77685;BME280;66844;46.092;18.268;2023-03-29T00:18:58;100177.47;;;0.57;71.46
77685;BME280;66844;46.092;18.268;2023-03-29T00:19:28;100183.56;;;0.62;70.84
77685;BME280;66844;46.092;18.268;2023-03-29T00:20:05;100173.09;;;0.62;71.27
77685;BME280;66844;46.092;18.268;2023-03-29T00:20:39;100182.66;;;0.66;71.03
77685;BME280;66844;46.092;18.268;2023-03-29T00:21:10;100180.94;;;0.61;71.25
77685;BME280;66844;46.092;18.268;2023-03-29T00:21:41;100183.56;;;0.61;71.61
77685;BME280;66844;46.092;18.268;2023-03-29T00:22:12;100185.28;;;0.60;71.71
77685;BME280;66844;46.092;18.268;2023-03-29T00:22:43;100190.53;;;0.60;72.13
77685;BME280;66844;46.092;18.268;2023-03-29T00:23:16;100186.19;;;0.59;72.35
77685;BME280;66844;46.092;18.268;2023-03-29T00:23:47;100182.69;;;0.57;72.12
77685;BME280;66844;46.092;18.268;2023-03-29T00:24:18;100184.44;;;0.58;72.00
77685;BME280;66844;46.092;18.268;2023-03-29T00:24:53;100187.94;;;0.59;72.04
77685;BME280;66844;46.092;18.268;2023-03-29T00:25:24;100182.69;;;0.60;71.59
77685;BME280;66844;46.092;18.268;2023-03-29T00:25:55;100186.19;;;0.59;71.94
77685;BME280;66844;46.092;18.268;2023-03-29T00:26:26;100178.34;;;0.59;71.73
77685;BME280;66844;46.092;18.268;2023-03-29T00:26:57;100186.16;;;0.62;72.14
77685;BME280;66844;46.092;18.268;2023-03-29T00:27:27;100182.66;;;0.65;71.22
77685;BME280;66844;46.092;18.268;2023-03-29T00:27:58;100185.25;;;0.68;72.00
77685;BME280;66844;46.092;18.268;2023-03-29T00:28:29;100187.00;;;0.70;71.06
77685;BME280;66844;46.092;18.268;2023-03-29T00:29:00;100179.13;;;0.67;71.37
77685;BME280;66844;46.092;18.268;2023-03-29T00:29:31;100183.50;;;0.68;71.31
77685;BME280;66844;46.092;18.268;2023-03-29T00:30:06;100185.25;;;0.68;71.56
77685;BME280;66844;46.092;18.268;2023-03-29T00:30:37;100180.84;;;0.71;71.33
77685;BME280;66844;46.092;18.268;2023-03-29T00:31:13;100173.88;;;0.72;71.44
77685;BME280;66844;46.092;18.268;2023-03-29T00:31:45;100177.38;;;0.72;71.88
77685;BME280;66844;46.092;18.268;2023-03-29T00:32:21;100172.13;;;0.71;71.30
77685;BME280;66844;46.092;18.268;2023-03-29T00:32:52;100175.63;;;0.73;72.06
77685;BME280;66844;46.092;18.268;2023-03-29T00:33:22;100175.63;;;0.74;71.32
77685;BME280;66844;46.092;18.268;2023-03-29T00:33:53;100181.72;;;0.78;71.11
77685;BME280;66844;46.092;18.268;2023-03-29T00:34:25;100169.47;;;0.75;71.32
77685;BME280;66844;46.092;18.268;2023-03-29T00:35:00;100172.06;;;0.80;70.99
77685;BME280;66844;46.092;18.268;2023-03-29T00:35:30;100169.44;;;0.84;70.43
77685;BME280;66844;46.092;18.268;2023-03-29T00:36:02;100169.47;;;0.81;71.48
77685;BME280;66844;46.092;18.268;2023-03-29T00:36:33;100168.59;;;0.81;70.69
77685;BME280;66844;46.092;18.268;2023-03-29T00:37:04;100166.81;;;0.84;71.55
77685;BME280;66844;46.092;18.268;2023-03-29T00:37:38;100170.28;;;0.86;71.44
77685;BME280;66844;46.092;18.268;2023-03-29T00:38:09;100168.56;;;0.85;71.55
77685;BME280;66844;46.092;18.268;2023-03-29T00:38:40;100168.59;;;0.79;70.68
77685;BME280;66844;46.092;18.268;2023-03-29T00:39:11;100170.38;;;0.73;70.69
77685;BME280;66844;46.092;18.268;2023-03-29T00:39:41;100173.88;;;0.73;70.89
77685;BME280;66844;46.092;18.268;2023-03-29T00:40:13;100173.84;;;0.76;70.68
77685;BME280;66844;46.092;18.268;2023-03-29T00:40:45;100173.84;;;0.76;71.48
77685;BME280;66844;46.092;18.268;2023-03-29T00:41:16;100173.84;;;0.76;71.76
77685;BME280;66844;46.092;18.268;2023-03-29T00:41:49;100165.13;;;0.76;71.36
77685;BME280;66844;46.092;18.268;2023-03-29T00:42:20;100172.06;;;0.80;71.20
77685;BME280;66844;46.092;18.268;2023-03-29T00:42:51;100176.44;;;0.81;71.21
77685;BME280;66844;46.092;18.268;2023-03-29T00:43:22;100169.47;;;0.81;70.75
77685;BME280;66844;46.092;18.268;2023-03-29T00:43:59;100173.78;;;0.84;71.06
77685;BME280;66844;46.092;18.268;2023-03-29T00:44:56;100173.81;;;0.81;71.00
77685;BME280;66844;46.092;18.268;2023-03-29T00:45:27;100167.72;;;0.79;70.92
77685;BME280;66844;46.092;18.268;2023-03-29T00:46:01;100164.25;;;0.77;71.26
77685;BME280;66844;46.092;18.268;2023-03-29T00:46:31;100165.16;;;0.74;71.72
77685;BME280;66844;46.092;18.268;2023-03-29T00:47:04;100163.41;;;0.72;71.90
77685;BME280;66844;46.092;18.268;2023-03-29T00:48:02;100160.78;;;0.72;71.54
77685;BME280;66844;46.092;18.268;2023-03-29T00:48:32;100157.28;;;0.71;71.28
77685;BME280;66844;46.092;18.268;2023-03-29T00:49:10;100162.59;;;0.67;71.75
77685;BME280;66844;46.092;18.268;2023-03-29T00:49:45;100165.19;;;0.68;72.04
77685;BME280;66844;46.092;18.268;2023-03-29T00:50:24;100159.09;;;0.65;71.58
77685;BME280;66844;46.092;18.268;2023-03-29T00:51:02;100164.34;;;0.66;71.96
77685;BME280;66844;46.092;18.268;2023-03-29T00:51:39;100160.84;;;0.66;71.60
77685;BME280;66844;46.092;18.268;2023-03-29T00:52:13;100151.25;;;0.63;71.40
77685;BME280;66844;46.092;18.268;2023-03-29T00:52:53;100159.13;;;0.62;71.86
77685;BME280;66844;46.092;18.268;2023-03-29T00:53:48;100157.38;;;0.62;71.34
77685;BME280;66844;46.092;18.268;2023-03-29T00:54:20;100152.97;;;0.64;71.31
77685;BME280;66844;46.092;18.268;2023-03-29T00:54:54;100152.13;;;0.62;71.69
77685;BME280;66844;46.092;18.268;2023-03-29T00:55:36;100161.72;;;0.65;71.14
77685;BME280;66844;46.092;18.268;2023-03-29T00:56:28;100166.09;;;0.63;71.14
77685;BME280;66844;46.092;18.268;2023-03-29T00:57:00;100161.72;;;0.65;70.96
77685;BME280;66844;46.092;18.268;2023-03-29T00:57:33;100170.41;;;0.68;70.41
77685;BME280;66844;46.092;18.268;2023-03-29T00:58:07;100166.03;;;0.69;70.71
77685;BME280;66844;46.092;18.268;2023-03-29T00:59:34;100164.34;;;0.62;71.83
77685;BME280;66844;46.092;18.268;2023-03-29T01:00:07;100163.50;;;0.63;71.92
77685;BME280;66844;46.092;18.268;2023-03-29T01:00:48;100164.34;;;0.62;71.73
77685;BME280;66844;46.092;18.268;2023-03-29T01:02:05;100162.63;;;0.56;71.84
77685;BME280;66844;46.092;18.268;2023-03-29T01:02:38;100167.88;;;0.56;71.99
77685;BME280;66844;46.092;18.268;2023-03-29T01:03:13;100162.69;;;0.52;72.45
77685;BME280;66844;46.092;18.268;2023-03-29T01:04:01;100167.91;;;0.53;72.22
77685;BME280;66844;46.092;18.268;2023-03-29T01:05:13;100168.81;;;0.47;73.14
77685;BME280;66844;46.092;18.268;2023-03-29T01:05:47;100164.41;;;0.53;72.74
77685;BME280;66844;46.092;18.268;2023-03-29T01:06:23;100162.69;;;0.50;72.03
77685;BME280;66844;46.092;18.268;2023-03-29T01:07:09;100161.84;;;0.48;72.48
77685;BME280;66844;46.092;18.268;2023-03-29T01:07:59;100167.94;;;0.47;72.57
77685;BME280;66844;46.092;18.268;2023-03-29T01:08:35;100169.66;;;0.49;72.72
77685;BME280;66844;46.092;18.268;2023-03-29T01:09:13;100164.44;;;0.49;72.65
77685;BME280;66844;46.092;18.268;2023-03-29T01:10:12;100165.28;;;0.53;71.82
77685;BME280;66844;46.092;18.268;2023-03-29T01:10:52;100157.41;;;0.53;72.48
77685;BME280;66844;46.092;18.268;2023-03-29T01:11:48;100156.59;;;0.45;72.83
77685;BME280;66844;46.092;18.268;2023-03-29T01:12:26;100171.44;;;0.46;73.16
77685;BME280;66844;46.092;18.268;2023-03-29T01:13:08;100164.44;;;0.45;73.47
77685;BME280;66844;46.092;18.268;2023-03-29T01:13:45;100165.34;;;0.42;72.86
77685;BME280;66844;46.092;18.268;2023-03-29T01:14:27;100165.38;;;0.41;73.14
77685;BME280;66844;46.092;18.268;2023-03-29T01:15:08;100157.50;;;0.44;72.90
77685;BME280;66844;46.092;18.268;2023-03-29T01:15:43;100162.72;;;0.42;72.78
77685;BME280;66844;46.092;18.268;2023-03-29T01:16:15;100154.03;;;0.39;73.23
77685;BME280;66844;46.092;18.268;2023-03-29T01:16:49;100161.88;;;0.40;72.53
77685;BME280;66844;46.092;18.268;2023-03-29T01:17:20;100158.38;;;0.41;72.97
77685;BME280;66844;46.092;18.268;2023-03-29T01:17:51;100149.69;;;0.41;73.23
77685;BME280;66844;46.092;18.268;2023-03-29T01:18:23;100164.50;;;0.40;73.45
77685;BME280;66844;46.092;18.268;2023-03-29T01:18:54;100160.13;;;0.38;73.23
77685;BME280;66844;46.092;18.268;2023-03-29T01:19:32;100161.88;;;0.40;72.71
77685;BME280;66844;46.092;18.268;2023-03-29T01:21:46;100158.41;;;0.40;72.63
77685;BME280;66844;46.092;18.268;2023-03-29T01:22:53;100161.88;;;0.40;72.75
77685;BME280;66844;46.092;18.268;2023-03-29T01:24:45;100148.81;;;0.36;72.86
77685;BME280;66844;46.092;18.268;2023-03-29T01:26:21;100151.44;;;0.36;72.76
77685;BME280;66844;46.092;18.268;2023-03-29T01:27:17;100147.06;;;0.36;72.30
77685;BME280;66844;46.092;18.268;2023-03-29T01:28:50;100154.09;;;0.27;73.37
77685;BME280;66844;46.092;18.268;2023-03-29T01:29:43;100152.41;;;0.21;73.46
77685;BME280;66844;46.092;18.268;2023-03-29T01:30:20;100153.28;;;0.17;73.16
77685;BME280;66844;46.092;18.268;2023-03-29T01:31:06;100150.69;;;0.17;73.83
77685;BME280;66844;46.092;18.268;2023-03-29T01:31:43;100148.94;;;0.16;73.29
77685;BME280;66844;46.092;18.268;2023-03-29T01:32:34;100149.81;;;0.14;74.08
77685;BME280;66844;46.092;18.268;2023-03-29T01:33:16;100153.31;;;0.10;73.84
77685;BME280;66844;46.092;18.268;2023-03-29T01:33:57;100149.84;;;0.05;73.46
77685;BME280;66844;46.092;18.268;2023-03-29T01:36:15;100148.13;;;0.04;72.75
77685;BME280;66844;46.092;18.268;2023-03-29T01:36:54;100150.75;;;0.00;72.99
77685;BME280;66844;46.092;18.268;2023-03-29T01:37:40;100149.91;;;0.00;73.12
77685;BME280;66844;46.092;18.268;2023-03-29T01:38:19;100149.03;;;-0.02;72.96
77685;BME280;66844;46.092;18.268;2023-03-29T01:39:00;100159.50;;;-0.05;73.35
77685;BME280;66844;46.092;18.268;2023-03-29T01:39:32;100154.25;;;-0.07;73.00
77685;BME280;66844;46.092;18.268;2023-03-29T01:40:04;100154.28;;;-0.05;72.99
77685;BME280;66844;46.092;18.268;2023-03-29T01:40:35;100145.56;;;-0.06;73.02
77685;BME280;66844;46.092;18.268;2023-03-29T01:41:06;100148.19;;;-0.09;73.37
77685;BME280;66844;46.092;18.268;2023-03-29T01:42:27;100149.91;;;-0.05;73.02
77685;BME280;66844;46.092;18.268;2023-03-29T01:43:26;100151.63;;;-0.01;72.05
77685;BME280;66844;46.092;18.268;2023-03-29T01:49:02;100149.78;;;0.21;71.01
77685;BME280;66844;46.092;18.268;2023-03-29T01:49:43;100154.16;;;0.16;71.25
77685;BME280;66844;46.092;18.268;2023-03-29T01:51:37;100152.47;;;0.11;72.59
77685;BME280;66844;46.092;18.268;2023-03-29T01:52:19;100155.97;;;0.07;73.23
77685;BME280;66844;46.092;18.268;2023-03-29T01:52:57;100162.06;;;0.04;72.97
77685;BME280;66844;46.092;18.268;2023-03-29T01:53:30;100153.34;;;0.07;73.57
77685;BME280;66844;46.092;18.268;2023-03-29T01:54:08;100144.66;;;0.03;73.11
77685;BME280;66844;46.092;18.268;2023-03-29T01:54:46;100155.97;;;0.07;73.03
77685;BME280;66844;46.092;18.268;2023-03-29T01:55:32;100150.72;;;0.05;73.57
77685;BME280;66844;46.092;18.268;2023-03-29T01:56:12;100167.28;;;0.09;72.94
77685;BME280;66844;46.092;18.268;2023-03-29T01:56:46;100149.84;;;0.08;73.33
77685;BME280;66844;46.092;18.268;2023-03-29T01:57:21;100153.31;;;0.10;72.94
77685;BME280;66844;46.092;18.268;2023-03-29T01:57:55;100152.44;;;0.09;72.93
77685;BME280;66844;46.092;18.268;2023-03-29T01:58:32;100148.13;;;0.02;73.15
77685;BME280;66844;46.092;18.268;2023-03-29T01:59:14;100142.91;;;0.02;73.23
77685;BME280;66844;46.092;18.268;2023-03-29T01:59:46;100154.22;;;0.01;73.18
77685;BME280;66844;46.092;18.268;2023-03-29T02:00:23;100148.09;;;0.05;71.83
77685;BME280;66844;46.092;18.268;2023-03-29T02:00:57;100157.75;;;-0.02;73.17
77685;BME280;66844;46.092;18.268;2023-03-29T02:01:39;100161.19;;;0.05;71.95
77685;BME280;66844;46.092;18.268;2023-03-29T02:02:14;100165.53;;;0.08;71.56
77685;BME280;66844;46.092;18.268;2023-03-29T02:02:47;100153.31;;;0.10;71.87
77685;BME280;66844;46.092;18.268;2023-03-29T02:03:24;100162.91;;;0.11;71.42
77685;BME280;66844;46.092;18.268;2023-03-29T02:04:03;100159.41;;;0.12;71.54
77685;BME280;66844;46.092;18.268;2023-03-29T02:04:39;100158.53;;;0.13;71.53
77685;BME280;66844;46.092;18.268;2023-03-29T02:05:13;100165.50;;;0.15;70.84
77685;BME280;66844;46.092;18.268;2023-03-29T02:05:45;100155.91;;;0.17;70.66
77685;BME280;66844;46.092;18.268;2023-03-29T02:06:21;100156.78;;;0.18;70.79
77685;BME280;66844;46.092;18.268;2023-03-29T02:06:55;100155.88;;;0.19;71.24
77685;BME280;66844;46.092;18.268;2023-03-29T02:07:29;100166.34;;;0.20;70.82
77685;BME280;66844;46.092;18.268;2023-03-29T02:08:03;100161.97;;;0.19;70.87
77685;BME280;66844;46.092;18.268;2023-03-29T02:08:36;100157.63;;;0.15;71.12
77685;BME280;66844;46.092;18.268;2023-03-29T02:09:08;100162.00;;;0.16;70.86
77685;BME280;66844;46.092;18.268;2023-03-29T02:09:39;100162.88;;;0.18;71.39
77685;BME280;66844;46.092;18.268;2023-03-29T02:10:11;100168.09;;;0.20;71.30
77685;BME280;66844;46.092;18.268;2023-03-29T02:10:43;100159.41;;;0.18;70.64
77685;BME280;66844;46.092;18.268;2023-03-29T02:11:14;100166.34;;;0.19;71.38
77685;BME280;66844;46.092;18.268;2023-03-29T02:11:45;100157.63;;;0.20;70.88
77685;BME280;66844;46.092;18.268;2023-03-29T02:12:17;100162.84;;;0.20;70.95
77685;BME280;66844;46.092;18.268;2023-03-29T02:12:48;100157.63;;;0.15;71.49
77685;BME280;66844;46.092;18.268;2023-03-29T02:13:19;100155.94;;;0.14;71.97
77685;BME280;66844;46.092;18.268;2023-03-29T02:13:50;100164.66;;;0.13;72.30
77685;BME280;66844;46.092;18.268;2023-03-29T02:14:21;100165.53;;;0.11;72.44
77685;BME280;66844;46.092;18.268;2023-03-29T02:14:53;100161.19;;;0.11;72.31
77685;BME280;66844;46.092;18.268;2023-03-29T02:15:26;100166.41;;;0.11;72.73
77685;BME280;66844;46.092;18.268;2023-03-29T02:15:57;100175.13;;;0.09;72.19
77685;BME280;66844;46.092;18.268;2023-03-29T02:16:37;100169.03;;;0.10;72.39
77685;BME280;66844;46.092;18.268;2023-03-29T02:17:20;100174.28;;;0.07;73.22
77685;BME280;66844;46.092;18.268;2023-03-29T02:17:52;100169.91;;;0.01;73.33
77685;BME280;66844;46.092;18.268;2023-03-29T02:18:23;100176.91;;;-0.01;73.51
77685;BME280;66844;46.092;18.268;2023-03-29T02:18:55;100172.56;;;-0.01;73.24
77685;BME280;66844;46.092;18.268;2023-03-29T02:19:27;100173.44;;;-0.02;73.06
77685;BME280;66844;46.092;18.268;2023-03-29T02:20:09;100173.44;;;-0.05;73.52
77685;BME280;66844;46.092;18.268;2023-03-29T02:20:47;100174.34;;;-0.09;73.84
77685;BME280;66844;46.092;18.268;2023-03-29T02:21:26;100172.59;;;-0.13;73.92
77685;BME280;66844;46.092;18.268;2023-03-29T02:22:07;100176.94;;;-0.15;74.20
77685;BME280;66844;46.092;18.268;2023-03-29T02:23:43;100173.50;;;-0.17;73.75
77685;BME280;66844;46.092;18.268;2023-03-29T02:24:17;100180.47;;;-0.19;74.08
77685;BME280;66844;46.092;18.268;2023-03-29T02:24:53;100170.03;;;-0.19;74.06
77685;BME280;66844;46.092;18.268;2023-03-29T02:25:28;100182.22;;;-0.21;74.25
77685;BME280;66844;46.092;18.268;2023-03-29T02:26:00;100167.44;;;-0.26;74.71
77685;BME280;66844;46.092;18.268;2023-03-29T02:26:31;100171.78;;;-0.28;74.41
77685;BME280;66844;46.092;18.268;2023-03-29T02:27:02;100173.53;;;-0.29;74.47
77685;BME280;66844;46.092;18.268;2023-03-29T02:27:34;100172.66;;;-0.29;74.43
77685;BME280;66844;46.092;18.268;2023-03-29T02:28:07;100164.84;;;-0.35;74.82
77685;BME280;66844;46.092;18.268;2023-03-29T02:28:38;100167.44;;;-0.37;74.85
77685;BME280;66844;46.092;18.268;2023-03-29T02:29:09;100169.19;;;-0.39;74.83
77685;BME280;66844;46.092;18.268;2023-03-29T02:29:39;100174.44;;;-0.34;74.50
77685;BME280;66844;46.092;18.268;2023-03-29T02:30:12;100171.78;;;-0.33;74.32
77685;BME280;66844;46.092;18.268;2023-03-29T02:30:56;100172.66;;;-0.32;74.23
77685;BME280;66844;46.092;18.268;2023-03-29T02:31:52;100177.03;;;-0.34;74.93
77685;BME280;66844;46.092;18.268;2023-03-29T02:32:52;100175.28;;;-0.32;74.79
77685;BME280;66844;46.092;18.268;2023-03-29T02:34:37;100166.56;;;-0.33;74.71
77685;BME280;66844;46.092;18.268;2023-03-29T02:35:13;100172.66;;;-0.31;74.60
77685;BME280;66844;46.092;18.268;2023-03-29T02:35:57;100170.91;;;-0.33;74.68
77685;BME280;66844;46.092;18.268;2023-03-29T02:36:40;100169.19;;;-0.34;74.85
77685;BME280;66844;46.092;18.268;2023-03-29T02:37:15;100168.31;;;-0.32;74.44
77685;BME280;66844;46.092;18.268;2023-03-29T02:37:53;100174.41;;;-0.31;74.74
77685;BME280;66844;46.092;18.268;2023-03-29T02:38:26;100171.78;;;-0.31;74.52
77685;BME280;66844;46.092;18.268;2023-03-29T02:38:59;100174.41;;;-0.31;74.25
77685;BME280;66844;46.092;18.268;2023-03-29T02:39:33;100173.53;;;-0.32;73.73
77685;BME280;66844;46.092;18.268;2023-03-29T02:40:04;100173.53;;;-0.33;74.29
77685;BME280;66844;46.092;18.268;2023-03-29T02:40:38;100170.91;;;-0.33;74.08
77685;BME280;66844;46.092;18.268;2023-03-29T02:41:12;100174.41;;;-0.31;74.19
77685;BME280;66844;46.092;18.268;2023-03-29T02:41:46;100180.50;;;-0.31;74.65
77685;BME280;66844;46.092;18.268;2023-03-29T02:42:20;100181.38;;;-0.33;74.62
77685;BME280;66844;46.092;18.268;2023-03-29T02:42:53;100179.63;;;-0.31;73.86
77685;BME280;66844;46.092;18.268;2023-03-29T02:43:26;100182.25;;;-0.31;74.03
77685;BME280;66844;46.092;18.268;2023-03-29T02:44:00;100182.25;;;-0.33;74.51
77685;BME280;66844;46.092;18.268;2023-03-29T02:44:37;100177.91;;;-0.34;74.33
77685;BME280;66844;46.092;18.268;2023-03-29T02:45:13;100183.13;;;-0.32;74.44
77685;BME280;66844;46.092;18.268;2023-03-29T02:45:46;100177.91;;;-0.34;74.01
77685;BME280;66844;46.092;18.268;2023-03-29T02:46:18;100180.50;;;-0.32;74.44
77685;BME280;66844;46.092;18.268;2023-03-29T02:46:53;100179.63;;;-0.31;73.96
77685;BME280;66844;46.092;18.268;2023-03-29T02:47:34;100172.66;;;-0.32;74.58
77685;BME280;66844;46.092;18.268;2023-03-29T02:48:11;100183.09;;;-0.29;74.39
77685;BME280;66844;46.092;18.268;2023-03-29T02:48:46;100163.97;;;-0.34;74.18
77685;BME280;66844;46.092;18.268;2023-03-29T02:49:19;100184.00;;;-0.35;74.26
77685;BME280;66844;46.092;18.268;2023-03-29T02:49:50;100181.41;;;-0.35;74.25
77685;BME280;66844;46.092;18.268;2023-03-29T02:50:23;100178.75;;;-0.33;74.16
77685;BME280;66844;46.092;18.268;2023-03-29T02:51:00;100186.59;;;-0.33;73.61
77685;BME280;66844;46.092;18.268;2023-03-29T02:51:34;100184.84;;;-0.33;73.55
77685;BME280;66844;46.092;18.268;2023-03-29T02:52:12;100181.38;;;-0.32;73.72
77685;BME280;66844;46.092;18.268;2023-03-29T02:52:54;100186.59;;;-0.33;73.57
77685;BME280;66844;46.092;18.268;2023-03-29T02:53:39;100188.38;;;-0.34;74.25
77685;BME280;66844;46.092;18.268;2023-03-29T02:54:14;100184.88;;;-0.31;73.62
77685;BME280;66844;46.092;18.268;2023-03-29T02:54:50;100190.97;;;-0.32;73.19
77685;BME280;66844;46.092;18.268;2023-03-29T02:55:24;100191.84;;;-0.30;73.64
77685;BME280;66844;46.092;18.268;2023-03-29T02:55:55;100197.94;;;-0.30;73.42
77685;BME280;66844;46.092;18.268;2023-03-29T02:56:27;100193.56;;;-0.28;73.40
77685;BME280;66844;46.092;18.268;2023-03-29T02:57:00;100192.69;;;-0.27;73.65
77685;BME280;66844;46.092;18.268;2023-03-29T02:57:33;100196.19;;;-0.29;73.04
77685;BME280;66844;46.092;18.268;2023-03-29T02:58:05;100195.31;;;-0.27;73.20
77685;BME280;66844;46.092;18.268;2023-03-29T02:58:37;100195.31;;;-0.28;73.21
77685;BME280;66844;46.092;18.268;2023-03-29T02:59:08;100187.47;;;-0.28;73.04
77685;BME280;66844;46.092;18.268;2023-03-29T02:59:39;100195.31;;;-0.28;73.28
77685;BME280;66844;46.092;18.268;2023-03-29T03:00:13;100193.56;;;-0.28;72.91
77685;BME280;66844;46.092;18.268;2023-03-29T03:00:46;100190.06;;;-0.28;72.23
77685;BME280;66844;46.092;18.268;2023-03-29T03:01:18;100194.41;;;-0.26;72.55
77685;BME280;66844;46.092;18.268;2023-03-29T03:01:49;100187.47;;;-0.24;71.92
77685;BME280;66844;46.092;18.268;2023-03-29T03:02:22;100190.06;;;-0.24;71.61
77685;BME280;66844;46.092;18.268;2023-03-29T03:02:55;100196.16;;;-0.20;71.08
77685;BME280;66844;46.092;18.268;2023-03-29T03:03:25;100194.41;;;-0.17;71.87
77685;BME280;66844;46.092;18.268;2023-03-29T03:03:56;100196.16;;;-0.16;70.73
77685;BME280;66844;46.092;18.268;2023-03-29T03:04:27;100191.78;;;-0.17;70.84
77685;BME280;66844;46.092;18.268;2023-03-29T03:04:58;100190.91;;;-0.14;70.78
77685;BME280;66844;46.092;18.268;2023-03-29T03:05:29;100186.53;;;-0.14;71.02
77685;BME280;66844;46.092;18.268;2023-03-29T03:06:00;100189.19;;;-0.17;71.42
77685;BME280;66844;46.092;18.268;2023-03-29T03:06:31;100190.03;;;-0.12;71.79
77685;BME280;66844;46.092;18.268;2023-03-29T03:07:02;100189.16;;;-0.09;70.51
77685;BME280;66844;46.092;18.268;2023-03-29T03:07:34;100189.16;;;-0.08;71.05
77685;BME280;66844;46.092;18.268;2023-03-29T03:08:05;100188.25;;;-0.07;70.44
77685;BME280;66844;46.092;18.268;2023-03-29T03:08:37;100185.66;;;-0.05;70.22
77685;BME280;66844;46.092;18.268;2023-03-29T03:09:07;100179.56;;;-0.04;69.69
77685;BME280;66844;46.092;18.268;2023-03-29T03:09:39;100183.00;;;-0.04;70.36
77685;BME280;66844;46.092;18.268;2023-03-29T03:10:10;100189.13;;;-0.06;71.42
77685;BME280;66844;46.092;18.268;2023-03-29T03:10:41;100188.28;;;-0.05;71.74
77685;BME280;66844;46.092;18.268;2023-03-29T03:11:12;100197.84;;;-0.04;71.29
77685;BME280;66844;46.092;18.268;2023-03-29T03:11:44;100190.84;;;-0.04;71.10
77685;BME280;66844;46.092;18.268;2023-03-29T03:12:15;100187.41;;;-0.06;71.39
77685;BME280;66844;46.092;18.268;2023-03-29T03:12:45;100190.88;;;-0.05;71.39
77685;BME280;66844;46.092;18.268;2023-03-29T03:13:16;100190.00;;;-0.06;71.29
77685;BME280;66844;46.092;18.268;2023-03-29T03:13:47;100189.13;;;-0.03;70.84
77685;BME280;66844;46.092;18.268;2023-03-29T03:14:17;100192.59;;;-0.03;71.08
77685;BME280;66844;46.092;18.268;2023-03-29T03:14:52;100189.13;;;-0.02;71.07
77685;BME280;66844;46.092;18.268;2023-03-29T03:15:22;100188.25;;;-0.01;70.48
77685;BME280;66844;46.092;18.268;2023-03-29T03:15:53;100192.63;;;-0.01;70.96
77685;BME280;66844;46.092;18.268;2023-03-29T03:16:24;100189.13;;;-0.02;70.75
77685;BME280;66844;46.092;18.268;2023-03-29T03:16:55;100198.72;;;-0.02;70.84
77685;BME280;66844;46.092;18.268;2023-03-29T03:17:27;100181.28;;;0.00;70.67
77685;BME280;66844;46.092;18.268;2023-03-29T03:17:57;100189.09;;;0.02;70.76
77685;BME280;66844;46.092;18.268;2023-03-29T03:18:28;100188.25;;;-0.01;70.64
77685;BME280;66844;46.092;18.268;2023-03-29T03:18:58;100189.97;;;0.02;70.58
77685;BME280;66844;46.092;18.268;2023-03-29T03:19:30;100189.13;;;-0.02;70.79